sensor_id;sensor_type;location;lat;lon;timestamp;P1;durP1;ratioP1;P2;durP2;ratioP2
4428;SDS011;2227;47.810;8.810;2023-07-13T03:46:21;6.75;;;2.90;;
4428;SDS011;2227;47.810;8.810;2023-07-13T03:48:48;5.95;;;3.45;;
4428;SDS011;2227;47.810;8.810;2023-07-13T03:51:15;8.25;;;3.20;;
4428;SDS011;2227;47.810;8.810;2023-07-13T03:53:44;4.55;;;2.72;;
4428;SDS011;2227;47.810;8.810;2023-07-13T03:56:12;8.23;;;3.42;;
4428;SDS011;2227;47.810;8.810;2023-07-13T03:58:42;6.53;;;3.33;;
4428;SDS011;2227;47.810;8.810;2023-07-13T04:01:11;5.63;;;3.22;;
4428;SDS011;2227;47.810;8.810;2023-07-13T04:03:38;9.30;;;2.88;;
4428;SDS011;2227;47.810;8.810;2023-07-13T04:06:07;5.00;;;2.78;;
4428;SDS011;2227;47.810;8.810;2023-07-13T04:08:54;7.05;;;2.97;;
4428;SDS011;2227;47.810;8.810;2023-07-13T04:11:23;6.43;;;2.72;;
4428;SDS011;2227;47.810;8.810;2023-07-13T04:13:51;5.45;;;3.00;;
4428;SDS011;2227;47.810;8.810;2023-07-13T04:16:19;5.97;;;2.90;;
4428;SDS011;2227;47.810;8.810;2023-07-13T04:18:47;5.82;;;2.75;;
4428;SDS011;2227;47.810;8.810;2023-07-13T04:21:14;5.72;;;2.65;;
4428;SDS011;2227;47.810;8.810;2023-07-13T04:23:42;5.57;;;2.80;;
4428;SDS011;2227;47.810;8.810;2023-07-13T04:26:10;4.53;;;2.78;;
4428;SDS011;2227;47.810;8.810;2023-07-13T04:28:37;6.82;;;2.97;;
4428;SDS011;2227;47.810;8.810;2023-07-13T04:31:04;4.95;;;2.67;;
4428;SDS011;2227;47.810;8.810;2023-07-13T04:33:31;5.72;;;2.80;;
4428;SDS011;2227;47.810;8.810;2023-07-13T04:35:57;5.63;;;3.00;;
4428;SDS011;2227;47.810;8.810;2023-07-13T04:38:28;6.35;;;2.90;;
4428;SDS011;2227;47.810;8.810;2023-07-13T04:40:58;5.55;;;2.47;;
4428;SDS011;2227;47.810;8.810;2023-07-13T04:43:27;6.78;;;2.88;;
4428;SDS011;2227;47.810;8.810;2023-07-13T04:45:55;4.15;;;2.60;;
4428;SDS011;2227;47.810;8.810;2023-07-13T04:48:23;5.65;;;2.90;;
4428;SDS011;2227;47.810;8.810;2023-07-13T04:50:56;7.22;;;3.17;;
4428;SDS011;2227;47.810;8.810;2023-07-13T04:53:24;5.93;;;2.63;;
4428;SDS011;2227;47.810;8.810;2023-07-13T04:55:52;5.90;;;3.35;;
4428;SDS011;2227;47.810;8.810;2023-07-13T04:58:18;7.05;;;2.80;;
4428;SDS011;2227;47.810;8.810;2023-07-13T05:00:45;7.22;;;3.22;;
4428;SDS011;2227;47.810;8.810;2023-07-13T05:03:12;4.85;;;2.95;;
4428;SDS011;2227;47.810;8.810;2023-07-13T05:05:39;5.93;;;3.03;;
4428;SDS011;2227;47.810;8.810;2023-07-13T05:08:06;5.80;;;2.72;;
4428;SDS011;2227;47.810;8.810;2023-07-13T05:10:33;7.25;;;2.53;;
4428;SDS011;2227;47.810;8.810;2023-07-13T05:13:01;5.40;;;2.95;;
4428;SDS011;2227;47.810;8.810;2023-07-13T05:15:28;4.75;;;2.75;;
4428;SDS011;2227;47.810;8.810;2023-07-13T05:17:55;6.28;;;3.10;;
4428;SDS011;2227;47.810;8.810;2023-07-13T05:20:21;5.60;;;2.80;;
4428;SDS011;2227;47.810;8.810;2023-07-13T05:22:48;6.47;;;2.50;;
4428;SDS011;2227;47.810;8.810;2023-07-13T05:25:17;5.38;;;2.65;;
4428;SDS011;2227;47.810;8.810;2023-07-13T05:27:44;6.30;;;2.63;;
4428;SDS011;2227;47.810;8.810;2023-07-13T05:30:12;4.65;;;2.67;;
4428;SDS011;2227;47.810;8.810;2023-07-13T05:32:39;4.60;;;2.28;;
4428;SDS011;2227;47.810;8.810;2023-07-13T05:35:07;5.53;;;2.70;;
4428;SDS011;2227;47.810;8.810;2023-07-13T05:37:34;3.92;;;2.03;;
4428;SDS011;2227;47.810;8.810;2023-07-13T05:40:01;6.70;;;3.03;;
4428;SDS011;2227;47.810;8.810;2023-07-13T05:42:28;7.47;;;2.67;;
4428;SDS011;2227;47.810;8.810;2023-07-13T05:44:54;7.75;;;2.83;;
4428;SDS011;2227;47.810;8.810;2023-07-13T05:47:21;6.70;;;3.08;;
4428;SDS011;2227;47.810;8.810;2023-07-13T05:49:48;4.65;;;2.35;;
4428;SDS011;2227;47.810;8.810;2023-07-13T05:52:15;6.63;;;2.65;;
4428;SDS011;2227;47.810;8.810;2023-07-13T05:54:42;4.68;;;2.42;;
4428;SDS011;2227;47.810;8.810;2023-07-13T05:57:08;4.35;;;2.40;;
4428;SDS011;2227;47.810;8.810;2023-07-13T05:59:35;6.55;;;2.47;;
4428;SDS011;2227;47.810;8.810;2023-07-13T06:02:02;4.60;;;2.20;;
4428;SDS011;2227;47.810;8.810;2023-07-13T06:04:29;6.05;;;2.33;;
4428;SDS011;2227;47.810;8.810;2023-07-13T06:06:55;6.20;;;2.00;;
4428;SDS011;2227;47.810;8.810;2023-07-13T06:09:22;5.75;;;2.00;;
4428;SDS011;2227;47.810;8.810;2023-07-13T06:11:49;5.28;;;2.20;;
4428;SDS011;2227;47.810;8.810;2023-07-13T06:14:16;6.75;;;2.75;;
4428;SDS011;2227;47.810;8.810;2023-07-13T06:16:42;7.32;;;2.40;;
4428;SDS011;2227;47.810;8.810;2023-07-13T06:19:09;3.83;;;1.95;;
4428;SDS011;2227;47.810;8.810;2023-07-13T06:21:36;6.43;;;2.30;;
4428;SDS011;2227;47.810;8.810;2023-07-13T06:24:03;4.50;;;2.15;;
4428;SDS011;2227;47.810;8.810;2023-07-13T06:26:30;5.03;;;1.90;;
4428;SDS011;2227;47.810;8.810;2023-07-13T06:28:56;3.97;;;1.70;;
4428;SDS011;2227;47.810;8.810;2023-07-13T06:31:23;5.43;;;2.00;;
4428;SDS011;2227;47.810;8.810;2023-07-13T06:33:50;4.32;;;1.65;;
4428;SDS011;2227;47.810;8.810;2023-07-13T06:36:17;4.05;;;1.90;;
4428;SDS011;2227;47.810;8.810;2023-07-13T06:38:43;6.03;;;1.65;;
4428;SDS011;2227;47.810;8.810;2023-07-13T06:41:10;6.72;;;1.60;;
4428;SDS011;2227;47.810;8.810;2023-07-13T06:43:39;5.57;;;1.38;;
4428;SDS011;2227;47.810;8.810;2023-07-13T06:46:05;5.55;;;1.50;;
4428;SDS011;2227;47.810;8.810;2023-07-13T06:48:32;3.47;;;1.20;;
4428;SDS011;2227;47.810;8.810;2023-07-13T06:50:59;3.63;;;1.40;;
4428;SDS011;2227;47.810;8.810;2023-07-13T06:53:28;6.95;;;1.92;;
4428;SDS011;2227;47.810;8.810;2023-07-13T06:55:55;3.58;;;1.50;;
4428;SDS011;2227;47.810;8.810;2023-07-13T06:58:22;3.78;;;1.20;;
4428;SDS011;2227;47.810;8.810;2023-07-13T07:00:52;4.35;;;1.75;;
4428;SDS011;2227;47.810;8.810;2023-07-13T07:03:19;3.95;;;1.30;;
4428;SDS011;2227;47.810;8.810;2023-07-13T07:05:46;5.00;;;1.60;;
4428;SDS011;2227;47.810;8.810;2023-07-13T07:08:13;3.22;;;1.20;;
4428;SDS011;2227;47.810;8.810;2023-07-13T07:10:40;3.03;;;1.38;;
4428;SDS011;2227;47.810;8.810;2023-07-13T07:13:07;4.15;;;1.50;;
4428;SDS011;2227;47.810;8.810;2023-07-13T07:15:34;4.28;;;1.70;;
4428;SDS011;2227;47.810;8.810;2023-07-13T07:18:01;4.22;;;1.60;;
4428;SDS011;2227;47.810;8.810;2023-07-13T07:20:28;6.85;;;1.95;;
4428;SDS011;2227;47.810;8.810;2023-07-13T07:22:56;2.75;;;1.50;;
4428;SDS011;2227;47.810;8.810;2023-07-13T07:25:23;6.28;;;1.40;;
4428;SDS011;2227;47.810;8.810;2023-07-13T07:27:50;4.15;;;1.40;;
4428;SDS011;2227;47.810;8.810;2023-07-13T07:30:19;3.25;;;1.23;;
4428;SDS011;2227;47.810;8.810;2023-07-13T07:32:49;3.97;;;1.10;;
4428;SDS011;2227;47.810;8.810;2023-07-13T07:35:19;2.92;;;1.30;;
4428;SDS011;2227;47.810;8.810;2023-07-13T07:37:46;4.00;;;1.50;;
4428;SDS011;2227;47.810;8.810;2023-07-13T07:40:16;3.83;;;1.30;;
4428;SDS011;2227;47.810;8.810;2023-07-13T07:42:46;5.90;;;1.65;;
4428;SDS011;2227;47.810;8.810;2023-07-13T07:45:13;3.65;;;1.25;;
4428;SDS011;2227;47.810;8.810;2023-07-13T07:47:40;6.68;;;1.63;;
4428;SDS011;2227;47.810;8.810;2023-07-13T07:50:08;3.25;;;1.10;;
4428;SDS011;2227;47.810;8.810;2023-07-13T07:52:35;5.25;;;1.42;;
4428;SDS011;2227;47.810;8.810;2023-07-13T07:55:03;1.85;;;1.13;;
4428;SDS011;2227;47.810;8.810;2023-07-13T07:57:35;3.55;;;1.40;;
4428;SDS011;2227;47.810;8.810;2023-07-13T08:00:05;2.88;;;1.20;;
4428;SDS011;2227;47.810;8.810;2023-07-13T08:02:35;4.68;;;1.35;;
4428;SDS011;2227;47.810;8.810;2023-07-13T08:05:04;3.85;;;1.27;;
4428;SDS011;2227;47.810;8.810;2023-07-13T08:07:35;2.45;;;1.15;;
4428;SDS011;2227;47.810;8.810;2023-07-13T08:10:03;5.90;;;1.60;;
4428;SDS011;2227;47.810;8.810;2023-07-13T08:12:37;3.17;;;1.40;;
4428;SDS011;2227;47.810;8.810;2023-07-13T08:15:12;3.00;;;1.20;;
4428;SDS011;2227;47.810;8.810;2023-07-13T08:17:41;3.70;;;1.17;;
4428;SDS011;2227;47.810;8.810;2023-07-13T08:20:08;5.22;;;1.30;;
4428;SDS011;2227;47.810;8.810;2023-07-13T08:22:35;3.30;;;1.17;;
4428;SDS011;2227;47.810;8.810;2023-07-13T08:25:02;4.55;;;1.52;;
4428;SDS011;2227;47.810;8.810;2023-07-13T08:27:31;5.00;;;1.38;;
4428;SDS011;2227;47.810;8.810;2023-07-13T08:29:58;3.05;;;1.38;;
4428;SDS011;2227;47.810;8.810;2023-07-13T08:32:25;2.60;;;1.30;;
4428;SDS011;2227;47.810;8.810;2023-07-13T08:34:52;3.38;;;1.30;;
4428;SDS011;2227;47.810;8.810;2023-07-13T08:37:19;4.70;;;1.63;;
4428;SDS011;2227;47.810;8.810;2023-07-13T08:39:46;5.80;;;1.65;;
4428;SDS011;2227;47.810;8.810;2023-07-13T08:47:55;4.63;;;1.73;;
4428;SDS011;2227;47.810;8.810;2023-07-13T08:50:29;4.85;;;1.60;;
4428;SDS011;2227;47.810;8.810;2023-07-13T08:53:19;6.38;;;2.30;;
4428;SDS011;2227;47.810;8.810;2023-07-13T08:55:47;4.28;;;1.88;;
4428;SDS011;2227;47.810;8.810;2023-07-13T08:58:16;4.50;;;1.92;;
4428;SDS011;2227;47.810;8.810;2023-07-13T09:00:48;5.35;;;1.77;;
4428;SDS011;2227;47.810;8.810;2023-07-13T09:03:27;5.45;;;2.00;;
4428;SDS011;2227;47.810;8.810;2023-07-13T09:06:01;5.38;;;2.35;;
4428;SDS011;2227;47.810;8.810;2023-07-13T09:11:12;4.80;;;2.53;;
4428;SDS011;2227;47.810;8.810;2023-07-13T09:17:02;6.05;;;2.80;;
4428;SDS011;2227;47.810;8.810;2023-07-13T09:19:32;4.85;;;2.38;;
4428;SDS011;2227;47.810;8.810;2023-07-13T09:22:02;3.72;;;2.63;;
4428;SDS011;2227;47.810;8.810;2023-07-13T09:24:38;4.03;;;2.90;;
4428;SDS011;2227;47.810;8.810;2023-07-13T09:27:14;5.90;;;2.83;;
4428;SDS011;2227;47.810;8.810;2023-07-13T09:29:47;6.15;;;3.00;;
4428;SDS011;2227;47.810;8.810;2023-07-13T09:32:18;6.95;;;3.10;;
4428;SDS011;2227;47.810;8.810;2023-07-13T09:34:52;8.75;;;3.78;;
4428;SDS011;2227;47.810;8.810;2023-07-13T09:37:26;7.07;;;3.53;;
4428;SDS011;2227;47.810;8.810;2023-07-13T09:39:56;6.07;;;3.35;;
4428;SDS011;2227;47.810;8.810;2023-07-13T09:42:25;5.93;;;3.40;;
4428;SDS011;2227;47.810;8.810;2023-07-13T09:44:53;6.22;;;3.38;;
4428;SDS011;2227;47.810;8.810;2023-07-13T09:47:23;7.05;;;2.95;;
4428;SDS011;2227;47.810;8.810;2023-07-13T09:50:00;4.82;;;2.50;;
4428;SDS011;2227;47.810;8.810;2023-07-13T09:52:43;7.78;;;2.35;;
4428;SDS011;2227;47.810;8.810;2023-07-13T09:55:32;3.90;;;1.85;;
4428;SDS011;2227;47.810;8.810;2023-07-13T10:00:59;4.47;;;2.17;;
4428;SDS011;2227;47.810;8.810;2023-07-13T10:03:35;4.00;;;1.70;;
4428;SDS011;2227;47.810;8.810;2023-07-13T10:06:10;5.05;;;1.80;;
4428;SDS011;2227;47.810;8.810;2023-07-13T10:08:39;5.25;;;1.65;;
4428;SDS011;2227;47.810;8.810;2023-07-13T10:14:20;4.95;;;1.70;;
4428;SDS011;2227;47.810;8.810;2023-07-13T10:16:49;4.50;;;1.50;;
4428;SDS011;2227;47.810;8.810;2023-07-13T10:19:23;3.70;;;1.55;;
4428;SDS011;2227;47.810;8.810;2023-07-13T10:21:53;5.30;;;1.65;;
4428;SDS011;2227;47.810;8.810;2023-07-13T10:24:33;4.05;;;1.50;;
4428;SDS011;2227;47.810;8.810;2023-07-13T10:27:12;3.63;;;1.45;;
4428;SDS011;2227;47.810;8.810;2023-07-13T10:29:47;3.55;;;1.20;;
4428;SDS011;2227;47.810;8.810;2023-07-13T10:32:19;4.40;;;1.60;;
4428;SDS011;2227;47.810;8.810;2023-07-13T10:34:50;4.53;;;1.60;;
4428;SDS011;2227;47.810;8.810;2023-07-13T10:37:19;4.68;;;1.55;;
4428;SDS011;2227;47.810;8.810;2023-07-13T10:39:52;3.05;;;1.25;;
4428;SDS011;2227;47.810;8.810;2023-07-13T10:42:25;3.28;;;1.25;;
4428;SDS011;2227;47.810;8.810;2023-07-13T10:44:56;3.60;;;1.35;;
4428;SDS011;2227;47.810;8.810;2023-07-13T10:47:23;3.65;;;1.30;;
4428;SDS011;2227;47.810;8.810;2023-07-13T10:49:53;3.20;;;1.05;;
4428;SDS011;2227;47.810;8.810;2023-07-13T10:52:37;3.20;;;1.40;;
4428;SDS011;2227;47.810;8.810;2023-07-13T10:58:15;2.90;;;1.48;;
4428;SDS011;2227;47.810;8.810;2023-07-13T11:01:08;3.85;;;1.40;;
4428;SDS011;2227;47.810;8.810;2023-07-13T11:03:46;4.03;;;1.48;;
4428;SDS011;2227;47.810;8.810;2023-07-13T11:08:54;3.58;;;1.40;;
4428;SDS011;2227;47.810;8.810;2023-07-13T11:25:01;2.55;;;1.27;;
4428;SDS011;2227;47.810;8.810;2023-07-13T11:27:50;4.13;;;1.50;;
4428;SDS011;2227;47.810;8.810;2023-07-13T11:30:23;4.65;;;1.67;;
4428;SDS011;2227;47.810;8.810;2023-07-13T11:35:49;2.90;;;1.50;;
4428;SDS011;2227;47.810;8.810;2023-07-13T11:38:45;4.25;;;2.08;;
4428;SDS011;2227;47.810;8.810;2023-07-13T11:41:19;4.10;;;2.10;;
4428;SDS011;2227;47.810;8.810;2023-07-13T11:46:56;4.90;;;2.13;;
4428;SDS011;2227;47.810;8.810;2023-07-13T11:49:29;3.95;;;1.92;;
4428;SDS011;2227;47.810;8.810;2023-07-13T11:51:59;4.32;;;2.05;;
4428;SDS011;2227;47.810;8.810;2023-07-13T11:54:30;4.57;;;1.80;;
4428;SDS011;2227;47.810;8.810;2023-07-13T11:59:49;3.22;;;1.60;;
4428;SDS011;2227;47.810;8.810;2023-07-13T12:02:20;3.63;;;1.95;;
4428;SDS011;2227;47.810;8.810;2023-07-13T12:04:57;2.58;;;1.40;;
4428;SDS011;2227;47.810;8.810;2023-07-13T12:07:27;2.90;;;1.27;;
4428;SDS011;2227;47.810;8.810;2023-07-13T12:10:02;3.10;;;1.52;;
4428;SDS011;2227;47.810;8.810;2023-07-13T12:12:33;4.95;;;1.50;;
4428;SDS011;2227;47.810;8.810;2023-07-13T12:15:00;3.03;;;1.60;;
4428;SDS011;2227;47.810;8.810;2023-07-13T12:17:31;2.22;;;1.30;;
4428;SDS011;2227;47.810;8.810;2023-07-13T12:20:00;4.30;;;1.50;;
4428;SDS011;2227;47.810;8.810;2023-07-13T12:22:36;4.72;;;1.80;;
4428;SDS011;2227;47.810;8.810;2023-07-13T12:25:04;5.75;;;1.92;;
4428;SDS011;2227;47.810;8.810;2023-07-13T12:27:31;4.40;;;1.90;;
4428;SDS011;2227;47.810;8.810;2023-07-13T12:30:00;4.07;;;2.28;;
4428;SDS011;2227;47.810;8.810;2023-07-13T12:32:31;6.43;;;1.58;;
4428;SDS011;2227;47.810;8.810;2023-07-13T12:35:07;3.75;;;2.00;;
4428;SDS011;2227;47.810;8.810;2023-07-13T12:37:44;4.80;;;2.07;;
4428;SDS011;2227;47.810;8.810;2023-07-13T12:40:13;3.50;;;1.88;;
4428;SDS011;2227;47.810;8.810;2023-07-13T12:42:42;4.25;;;1.80;;
4428;SDS011;2227;47.810;8.810;2023-07-13T12:45:27;3.35;;;1.67;;
4428;SDS011;2227;47.810;8.810;2023-07-13T12:47:55;4.63;;;1.98;;
4428;SDS011;2227;47.810;8.810;2023-07-13T12:50:41;3.58;;;1.48;;
4428;SDS011;2227;47.810;8.810;2023-07-13T12:53:13;3.30;;;1.83;;
4428;SDS011;2227;47.810;8.810;2023-07-13T12:55:46;2.85;;;1.63;;
4428;SDS011;2227;47.810;8.810;2023-07-13T13:00:54;4.65;;;2.08;;
4428;SDS011;2227;47.810;8.810;2023-07-13T13:03:31;4.32;;;1.67;;
4428;SDS011;2227;47.810;8.810;2023-07-13T13:06:05;4.68;;;2.20;;
4428;SDS011;2227;47.810;8.810;2023-07-13T13:08:48;4.22;;;1.67;;
4428;SDS011;2227;47.810;8.810;2023-07-13T13:11:17;4.47;;;1.80;;
4428;SDS011;2227;47.810;8.810;2023-07-13T13:13:45;12.55;;;3.30;;
4428;SDS011;2227;47.810;8.810;2023-07-13T13:16:14;5.45;;;1.90;;
4428;SDS011;2227;47.810;8.810;2023-07-13T13:18:59;4.88;;;1.63;;
4428;SDS011;2227;47.810;8.810;2023-07-13T13:21:57;3.58;;;1.50;;
4428;SDS011;2227;47.810;8.810;2023-07-13T13:24:24;3.53;;;1.73;;
4428;SDS011;2227;47.810;8.810;2023-07-13T13:26:53;3.38;;;1.58;;
4428;SDS011;2227;47.810;8.810;2023-07-13T13:29:23;4.38;;;2.00;;
4428;SDS011;2227;47.810;8.810;2023-07-13T13:31:51;4.72;;;1.60;;
4428;SDS011;2227;47.810;8.810;2023-07-13T13:34:19;3.92;;;1.60;;
4428;SDS011;2227;47.810;8.810;2023-07-13T13:36:49;2.90;;;1.55;;
4428;SDS011;2227;47.810;8.810;2023-07-13T13:41:53;9.57;;;1.90;;
4428;SDS011;2227;47.810;8.810;2023-07-13T13:44:21;2.25;;;1.30;;
4428;SDS011;2227;47.810;8.810;2023-07-13T13:46:49;2.95;;;1.38;;
4428;SDS011;2227;47.810;8.810;2023-07-13T13:49:21;2.63;;;1.60;;
4428;SDS011;2227;47.810;8.810;2023-07-13T13:51:53;3.70;;;1.27;;
4428;SDS011;2227;47.810;8.810;2023-07-13T13:54:21;3.10;;;1.55;;
4428;SDS011;2227;47.810;8.810;2023-07-13T13:56:49;2.15;;;1.10;;
4428;SDS011;2227;47.810;8.810;2023-07-13T13:59:17;7.65;;;1.55;;
4428;SDS011;2227;47.810;8.810;2023-07-13T14:01:46;3.95;;;1.30;;
4428;SDS011;2227;47.810;8.810;2023-07-13T14:04:16;4.47;;;1.50;;
4428;SDS011;2227;47.810;8.810;2023-07-13T14:06:45;4.30;;;1.65;;
4428;SDS011;2227;47.810;8.810;2023-07-13T14:09:12;4.10;;;1.63;;
4428;SDS011;2227;47.810;8.810;2023-07-13T14:11:42;4.60;;;1.60;;
4428;SDS011;2227;47.810;8.810;2023-07-13T14:14:12;5.03;;;1.75;;
4428;SDS011;2227;47.810;8.810;2023-07-13T14:16:42;6.63;;;1.80;;
4428;SDS011;2227;47.810;8.810;2023-07-13T14:19:11;6.78;;;1.83;;
4428;SDS011;2227;47.810;8.810;2023-07-13T14:21:40;5.22;;;1.65;;
4428;SDS011;2227;47.810;8.810;2023-07-13T14:24:07;3.63;;;1.80;;
4428;SDS011;2227;47.810;8.810;2023-07-13T14:26:37;7.13;;;2.45;;
4428;SDS011;2227;47.810;8.810;2023-07-13T14:29:13;4.75;;;1.65;;
4428;SDS011;2227;47.810;8.810;2023-07-13T14:31:44;2.83;;;1.65;;
4428;SDS011;2227;47.810;8.810;2023-07-13T14:34:11;2.92;;;1.60;;
4428;SDS011;2227;47.810;8.810;2023-07-13T14:36:42;4.57;;;1.73;;
4428;SDS011;2227;47.810;8.810;2023-07-13T14:39:16;5.05;;;1.60;;
4428;SDS011;2227;47.810;8.810;2023-07-13T14:41:45;3.50;;;1.77;;
4428;SDS011;2227;47.810;8.810;2023-07-13T14:44:15;5.65;;;1.73;;
4428;SDS011;2227;47.810;8.810;2023-07-13T14:46:44;5.32;;;1.77;;
4428;SDS011;2227;47.810;8.810;2023-07-13T14:49:31;3.72;;;1.85;;
4428;SDS011;2227;47.810;8.810;2023-07-13T14:52:13;3.78;;;1.35;;
4428;SDS011;2227;47.810;8.810;2023-07-13T14:54:44;6.18;;;1.75;;
4428;SDS011;2227;47.810;8.810;2023-07-13T14:57:13;6.82;;;1.80;;
4428;SDS011;2227;47.810;8.810;2023-07-13T14:59:41;6.05;;;1.50;;
4428;SDS011;2227;47.810;8.810;2023-07-13T15:02:15;10.65;;;2.00;;
4428;SDS011;2227;47.810;8.810;2023-07-13T15:04:59;2.75;;;1.40;;
4428;SDS011;2227;47.810;8.810;2023-07-13T15:07:27;3.50;;;1.85;;
4428;SDS011;2227;47.810;8.810;2023-07-13T15:09:54;5.22;;;2.70;;
4428;SDS011;2227;47.810;8.810;2023-07-13T15:12:21;6.93;;;1.60;;
4428;SDS011;2227;47.810;8.810;2023-07-13T15:14:47;4.20;;;1.50;;
4428;SDS011;2227;47.810;8.810;2023-07-13T15:17:26;3.95;;;1.48;;
4428;SDS011;2227;47.810;8.810;2023-07-13T15:19:59;5.20;;;1.38;;
4428;SDS011;2227;47.810;8.810;2023-07-13T15:22:26;5.68;;;1.45;;
4428;SDS011;2227;47.810;8.810;2023-07-13T15:24:53;2.92;;;1.33;;
4428;SDS011;2227;47.810;8.810;2023-07-13T15:27:20;8.27;;;1.75;;
4428;SDS011;2227;47.810;8.810;2023-07-13T15:29:47;3.25;;;1.23;;
4428;SDS011;2227;47.810;8.810;2023-07-13T15:32:14;2.15;;;1.27;;
4428;SDS011;2227;47.810;8.810;2023-07-13T15:34:41;3.83;;;1.50;;
4428;SDS011;2227;47.810;8.810;2023-07-13T15:37:16;2.80;;;1.40;;
4428;SDS011;2227;47.810;8.810;2023-07-13T15:39:43;2.55;;;1.23;;
4428;SDS011;2227;47.810;8.810;2023-07-13T15:42:14;2.60;;;0.98;;
4428;SDS011;2227;47.810;8.810;2023-07-13T15:44:42;2.58;;;1.00;;
4428;SDS011;2227;47.810;8.810;2023-07-13T15:47:12;3.80;;;1.33;;
4428;SDS011;2227;47.810;8.810;2023-07-13T15:49:41;3.10;;;1.02;;
4428;SDS011;2227;47.810;8.810;2023-07-13T15:52:23;2.80;;;1.20;;
4428;SDS011;2227;47.810;8.810;2023-07-13T15:54:50;3.47;;;1.30;;
4428;SDS011;2227;47.810;8.810;2023-07-13T15:57:17;4.55;;;1.23;;
4428;SDS011;2227;47.810;8.810;2023-07-13T15:59:45;2.15;;;1.08;;
4428;SDS011;2227;47.810;8.810;2023-07-13T16:02:12;5.10;;;1.20;;
4428;SDS011;2227;47.810;8.810;2023-07-13T16:04:44;5.20;;;1.33;;
4428;SDS011;2227;47.810;8.810;2023-07-13T16:07:11;3.28;;;1.13;;
4428;SDS011;2227;47.810;8.810;2023-07-13T16:09:40;4.25;;;1.30;;
4428;SDS011;2227;47.810;8.810;2023-07-13T16:12:10;3.35;;;1.10;;
4428;SDS011;2227;47.810;8.810;2023-07-13T16:14:38;3.35;;;1.10;;
4428;SDS011;2227;47.810;8.810;2023-07-13T16:17:13;3.35;;;1.08;;
4428;SDS011;2227;47.810;8.810;2023-07-13T16:19:40;2.92;;;1.05;;
4428;SDS011;2227;47.810;8.810;2023-07-13T16:22:18;2.80;;;0.80;;
4428;SDS011;2227;47.810;8.810;2023-07-13T16:24:47;1.65;;;0.80;;
4428;SDS011;2227;47.810;8.810;2023-07-13T16:27:16;1.83;;;0.68;;
4428;SDS011;2227;47.810;8.810;2023-07-13T16:29:43;2.83;;;0.88;;
4428;SDS011;2227;47.810;8.810;2023-07-13T16:32:13;1.80;;;0.90;;
4428;SDS011;2227;47.810;8.810;2023-07-13T16:34:41;5.13;;;1.13;;
4428;SDS011;2227;47.810;8.810;2023-07-13T16:37:12;1.27;;;0.80;;
4428;SDS011;2227;47.810;8.810;2023-07-13T16:39:50;1.20;;;0.70;;
4428;SDS011;2227;47.810;8.810;2023-07-13T16:42:21;2.88;;;0.70;;
4428;SDS011;2227;47.810;8.810;2023-07-13T16:44:48;2.05;;;0.65;;
4428;SDS011;2227;47.810;8.810;2023-07-13T16:47:16;1.33;;;0.60;;
4428;SDS011;2227;47.810;8.810;2023-07-13T16:49:44;1.48;;;0.75;;
4428;SDS011;2227;47.810;8.810;2023-07-13T16:52:12;2.33;;;0.50;;
4428;SDS011;2227;47.810;8.810;2023-07-13T16:54:40;1.65;;;0.80;;
4428;SDS011;2227;47.810;8.810;2023-07-13T16:57:15;1.75;;;0.70;;
4428;SDS011;2227;47.810;8.810;2023-07-13T16:59:45;2.28;;;0.73;;
4428;SDS011;2227;47.810;8.810;2023-07-13T17:02:32;2.97;;;0.77;;
4428;SDS011;2227;47.810;8.810;2023-07-13T17:05:02;1.23;;;0.70;;
4428;SDS011;2227;47.810;8.810;2023-07-13T17:07:30;1.70;;;0.80;;
4428;SDS011;2227;47.810;8.810;2023-07-13T17:09:57;1.85;;;0.80;;
4428;SDS011;2227;47.810;8.810;2023-07-13T17:12:26;2.33;;;0.88;;
4428;SDS011;2227;47.810;8.810;2023-07-13T17:14:52;2.10;;;1.02;;
4428;SDS011;2227;47.810;8.810;2023-07-13T17:17:24;4.03;;;1.08;;
4428;SDS011;2227;47.810;8.810;2023-07-13T17:19:54;3.42;;;0.82;;
4428;SDS011;2227;47.810;8.810;2023-07-13T17:22:21;1.70;;;0.90;;
4428;SDS011;2227;47.810;8.810;2023-07-13T17:24:48;1.77;;;0.88;;
4428;SDS011;2227;47.810;8.810;2023-07-13T17:27:15;2.72;;;1.10;;
4428;SDS011;2227;47.810;8.810;2023-07-13T17:29:42;2.75;;;0.90;;
4428;SDS011;2227;47.810;8.810;2023-07-13T17:32:12;2.22;;;0.85;;
4428;SDS011;2227;47.810;8.810;2023-07-13T17:37:15;2.58;;;1.02;;
4428;SDS011;2227;47.810;8.810;2023-07-13T17:39:43;3.40;;;1.13;;
4428;SDS011;2227;47.810;8.810;2023-07-13T17:42:10;1.77;;;0.98;;
4428;SDS011;2227;47.810;8.810;2023-07-13T17:44:39;2.67;;;0.90;;
4428;SDS011;2227;47.810;8.810;2023-07-13T17:47:14;2.25;;;1.00;;
4428;SDS011;2227;47.810;8.810;2023-07-13T17:49:52;3.03;;;0.90;;
4428;SDS011;2227;47.810;8.810;2023-07-13T17:52:20;4.85;;;0.98;;
4428;SDS011;2227;47.810;8.810;2023-07-13T17:54:51;2.72;;;1.10;;
4428;SDS011;2227;47.810;8.810;2023-07-13T17:57:18;2.55;;;1.10;;
4428;SDS011;2227;47.810;8.810;2023-07-13T17:59:44;2.75;;;1.02;;
4428;SDS011;2227;47.810;8.810;2023-07-13T18:02:16;2.63;;;1.00;;
4428;SDS011;2227;47.810;8.810;2023-07-13T18:04:47;2.40;;;0.90;;
4428;SDS011;2227;47.810;8.810;2023-07-13T18:07:14;2.70;;;1.33;;
4428;SDS011;2227;47.810;8.810;2023-07-13T18:09:44;4.22;;;1.08;;
4428;SDS011;2227;47.810;8.810;2023-07-13T18:12:12;2.70;;;1.20;;
4428;SDS011;2227;47.810;8.810;2023-07-13T18:14:40;3.63;;;1.25;;
4428;SDS011;2227;47.810;8.810;2023-07-13T18:17:07;2.60;;;1.10;;
4428;SDS011;2227;47.810;8.810;2023-07-13T18:19:39;2.22;;;0.95;;
4428;SDS011;2227;47.810;8.810;2023-07-13T18:22:09;3.42;;;1.10;;
4428;SDS011;2227;47.810;8.810;2023-07-13T18:24:38;2.22;;;0.90;;
4428;SDS011;2227;47.810;8.810;2023-07-13T18:27:04;1.85;;;0.80;;
4428;SDS011;2227;47.810;8.810;2023-07-13T18:29:34;4.63;;;1.00;;
4428;SDS011;2227;47.810;8.810;2023-07-13T18:32:01;2.17;;;1.00;;
4428;SDS011;2227;47.810;8.810;2023-07-13T18:34:36;2.75;;;1.08;;
4428;SDS011;2227;47.810;8.810;2023-07-13T18:37:23;3.55;;;1.27;;
4428;SDS011;2227;47.810;8.810;2023-07-13T18:39:52;3.08;;;1.20;;
4428;SDS011;2227;47.810;8.810;2023-07-13T18:42:19;3.78;;;1.30;;
4428;SDS011;2227;47.810;8.810;2023-07-13T18:44:46;2.47;;;1.00;;
4428;SDS011;2227;47.810;8.810;2023-07-13T18:47:16;2.00;;;1.20;;
4428;SDS011;2227;47.810;8.810;2023-07-13T18:49:49;3.13;;;1.10;;
4428;SDS011;2227;47.810;8.810;2023-07-13T18:52:18;2.92;;;1.15;;
4428;SDS011;2227;47.810;8.810;2023-07-13T18:54:45;2.35;;;1.23;;
4428;SDS011;2227;47.810;8.810;2023-07-13T18:57:13;2.67;;;1.23;;
4428;SDS011;2227;47.810;8.810;2023-07-13T18:59:39;3.35;;;1.30;;
4428;SDS011;2227;47.810;8.810;2023-07-13T19:02:10;2.42;;;1.25;;
4428;SDS011;2227;47.810;8.810;2023-07-13T19:04:41;2.25;;;0.98;;
4428;SDS011;2227;47.810;8.810;2023-07-13T19:07:08;2.63;;;1.17;;
4428;SDS011;2227;47.810;8.810;2023-07-13T19:09:37;2.88;;;1.10;;
4428;SDS011;2227;47.810;8.810;2023-07-13T19:12:19;2.53;;;1.05;;
4428;SDS011;2227;47.810;8.810;2023-07-13T19:14:48;3.33;;;1.60;;
4428;SDS011;2227;47.810;8.810;2023-07-13T19:17:16;2.85;;;1.20;;
4428;SDS011;2227;47.810;8.810;2023-07-13T19:19:44;2.83;;;1.20;;
4428;SDS011;2227;47.810;8.810;2023-07-13T19:22:12;3.53;;;1.48;;
4428;SDS011;2227;47.810;8.810;2023-07-13T19:24:40;2.85;;;1.27;;
4428;SDS011;2227;47.810;8.810;2023-07-13T19:27:11;2.90;;;1.30;;
4428;SDS011;2227;47.810;8.810;2023-07-13T19:29:38;3.10;;;1.42;;
4428;SDS011;2227;47.810;8.810;2023-07-13T19:32:08;5.10;;;1.23;;
4428;SDS011;2227;47.810;8.810;2023-07-13T19:34:36;3.50;;;1.30;;
4428;SDS011;2227;47.810;8.810;2023-07-13T19:37:04;2.75;;;0.98;;
4428;SDS011;2227;47.810;8.810;2023-07-13T19:39:40;2.22;;;1.02;;
4428;SDS011;2227;47.810;8.810;2023-07-13T19:42:26;3.85;;;1.23;;
4428;SDS011;2227;47.810;8.810;2023-07-13T19:44:54;4.63;;;1.10;;
4428;SDS011;2227;47.810;8.810;2023-07-13T19:47:23;2.60;;;1.00;;
4428;SDS011;2227;47.810;8.810;2023-07-13T19:49:50;2.75;;;1.13;;
4428;SDS011;2227;47.810;8.810;2023-07-13T19:52:22;3.72;;;1.20;;
4428;SDS011;2227;47.810;8.810;2023-07-13T19:54:53;2.97;;;1.20;;
4428;SDS011;2227;47.810;8.810;2023-07-13T19:57:24;2.35;;;1.10;;
4428;SDS011;2227;47.810;8.810;2023-07-13T19:59:52;4.55;;;1.50;;
4428;SDS011;2227;47.810;8.810;2023-07-13T20:02:21;3.75;;;1.33;;
4428;SDS011;2227;47.810;8.810;2023-07-13T20:04:49;2.97;;;1.52;;
4428;SDS011;2227;47.810;8.810;2023-07-13T20:07:18;2.63;;;1.20;;
4428;SDS011;2227;47.810;8.810;2023-07-13T20:09:49;4.15;;;1.40;;
4428;SDS011;2227;47.810;8.810;2023-07-13T20:12:19;3.30;;;1.40;;